sensor_id;sensor_type;location;lat;lon;timestamp;pressure;altitude;pressure_sealevel;temperature;humidity
45050;BME280;61798;48.048;-1.928;2023-07-31T00:00:50;100915.03;;;16.01;100.00
45050;BME280;61798;48.048;-1.928;2023-07-31T00:02:56;100921.50;;;16.00;100.00
45050;BME280;61798;48.048;-1.928;2023-07-31T00:05:02;100921.50;;;16.00;100.00
45050;BME280;61798;48.048;-1.928;2023-07-31T00:07:08;100885.09;;;15.77;100.00
45050;BME280;61798;48.048;-1.928;2023-07-31T00:09:14;100924.69;;;15.90;100.00
45050;BME280;61798;48.048;-1.928;2023-07-31T00:11:20;100941.63;;;16.04;100.00
45050;BME280;61798;48.048;-1.928;2023-07-31T00:13:26;100922.75;;;15.97;100.00
45050;BME280;61798;48.048;-1.928;2023-07-31T00:15:31;100900.38;;;15.90;100.00
45050;BME280;61798;48.048;-1.928;2023-07-31T00:17:37;100920.94;;;15.91;100.00
45050;BME280;61798;48.048;-1.928;2023-07-31T00:19:43;100902.03;;;15.91;100.00
45050;BME280;61798;48.048;-1.928;2023-07-31T00:21:49;100899.41;;;15.84;100.00
45050;BME280;61798;48.048;-1.928;2023-07-31T00:23:55;100923.00;;;15.95;100.00
45050;BME280;61798;48.048;-1.928;2023-07-31T00:26:00;100929.16;;;16.03;100.00
45050;BME280;61798;48.048;-1.928;2023-07-31T00:28:06;100929.53;;;16.06;100.00
45050;BME280;61798;48.048;-1.928;2023-07-31T00:30:12;100921.25;;;16.01;100.00
45050;BME280;61798;48.048;-1.928;2023-07-31T00:32:19;100899.34;;;15.91;100.00
45050;BME280;61798;48.048;-1.928;2023-07-31T00:34:26;100889.00;;;15.81;100.00
45050;BME280;61798;48.048;-1.928;2023-07-31T00:36:31;100917.59;;;15.95;100.00
45050;BME280;61798;48.048;-1.928;2023-07-31T00:38:37;100893.31;;;15.89;100.00
45050;BME280;61798;48.048;-1.928;2023-07-31T00:40:43;100909.03;;;15.99;100.00
45050;BME280;61798;48.048;-1.928;2023-07-31T00:42:49;100883.22;;;15.77;100.00
45050;BME280;61798;48.048;-1.928;2023-07-31T00:44:54;100913.59;;;15.98;100.00
45050;BME280;61798;48.048;-1.928;2023-07-31T00:47:01;100906.31;;;15.99;100.00
45050;BME280;61798;48.048;-1.928;2023-07-31T00:49:07;100908.75;;;16.07;100.00
45050;BME280;61798;48.048;-1.928;2023-07-31T00:51:13;100917.25;;;16.11;100.00
45050;BME280;61798;48.048;-1.928;2023-07-31T00:53:19;100896.94;;;16.01;100.00
45050;BME280;61798;48.048;-1.928;2023-07-31T00:55:25;100901.50;;;16.01;100.00
45050;BME280;61798;48.048;-1.928;2023-07-31T00:57:32;100907.69;;;16.08;100.00
45050;BME280;61798;48.048;-1.928;2023-07-31T00:59:38;100869.44;;;15.85;100.00
45050;BME280;61798;48.048;-1.928;2023-07-31T01:01:44;100900.22;;;16.10;100.00
45050;BME280;61798;48.048;-1.928;2023-07-31T01:03:52;100897.75;;;16.02;100.00
45050;BME280;61798;48.048;-1.928;2023-07-31T01:06:10;100913.78;;;16.03;100.00
45050;BME280;61798;48.048;-1.928;2023-07-31T01:08:58;100911.06;;;16.03;100.00
45050;BME280;61798;48.048;-1.928;2023-07-31T01:11:17;100904.22;;;16.01;100.00
45050;BME280;61798;48.048;-1.928;2023-07-31T01:13:25;100902.13;;;16.03;100.00
45050;BME280;61798;48.048;-1.928;2023-07-31T01:15:31;100875.22;;;15.89;100.00
45050;BME280;61798;48.048;-1.928;2023-07-31T01:17:37;100889.09;;;15.93;100.00
45050;BME280;61798;48.048;-1.928;2023-07-31T01:19:44;100892.81;;;15.99;100.00
45050;BME280;61798;48.048;-1.928;2023-07-31T01:24:42;100896.72;;;16.03;100.00
45050;BME280;61798;48.048;-1.928;2023-07-31T01:27:06;100882.56;;;15.82;100.00
45050;BME280;61798;48.048;-1.928;2023-07-31T01:29:23;100885.59;;;15.92;100.00
45050;BME280;61798;48.048;-1.928;2023-07-31T01:31:32;100881.53;;;15.83;100.00
45050;BME280;61798;48.048;-1.928;2023-07-31T01:33:39;100880.31;;;15.79;100.00
45050;BME280;61798;48.048;-1.928;2023-07-31T01:35:46;100854.63;;;15.69;100.00
45050;BME280;61798;48.048;-1.928;2023-07-31T01:37:54;100829.00;;;15.53;100.00
45050;BME280;61798;48.048;-1.928;2023-07-31T01:39:59;100858.25;;;15.82;100.00
45050;BME280;61798;48.048;-1.928;2023-07-31T01:42:05;100869.31;;;15.80;100.00
45050;BME280;61798;48.048;-1.928;2023-07-31T01:44:13;100864.56;;;15.75;100.00
45050;BME280;61798;48.048;-1.928;2023-07-31T01:46:18;100842.31;;;15.73;100.00
45050;BME280;61798;48.048;-1.928;2023-07-31T01:48:24;100840.69;;;15.72;100.00
45050;BME280;61798;48.048;-1.928;2023-07-31T01:50:30;100869.31;;;15.80;100.00
45050;BME280;61798;48.048;-1.928;2023-07-31T01:52:36;100852.53;;;15.71;100.00
45050;BME280;61798;48.048;-1.928;2023-07-31T01:54:42;100857.72;;;15.73;100.00
45050;BME280;61798;48.048;-1.928;2023-07-31T01:56:48;100865.81;;;15.73;100.00
45050;BME280;61798;48.048;-1.928;2023-07-31T01:58:53;100829.25;;;15.51;100.00
45050;BME280;61798;48.048;-1.928;2023-07-31T02:00:59;100862.00;;;15.81;100.00
45050;BME280;61798;48.048;-1.928;2023-07-31T02:03:05;100837.38;;;15.70;100.00
45050;BME280;61798;48.048;-1.928;2023-07-31T02:05:11;100834.66;;;15.70;100.00
45050;BME280;61798;48.048;-1.928;2023-07-31T02:07:17;100819.56;;;15.62;100.00
45050;BME280;61798;48.048;-1.928;2023-07-31T02:09:23;100810.66;;;15.62;100.00
45050;BME280;61798;48.048;-1.928;2023-07-31T02:11:28;100815.22;;;15.61;100.00
45050;BME280;61798;48.048;-1.928;2023-07-31T02:13:34;100788.88;;;15.57;100.00
45050;BME280;61798;48.048;-1.928;2023-07-31T02:15:40;100815.31;;;15.73;100.00
45050;BME280;61798;48.048;-1.928;2023-07-31T02:17:46;100819.13;;;15.84;100.00
45050;BME280;61798;48.048;-1.928;2023-07-31T02:19:52;100805.41;;;15.86;100.00
45050;BME280;61798;48.048;-1.928;2023-07-31T02:21:58;100796.34;;;15.80;100.00
45050;BME280;61798;48.048;-1.928;2023-07-31T02:24:04;100798.06;;;15.74;100.00
45050;BME280;61798;48.048;-1.928;2023-07-31T02:26:10;100786.13;;;15.63;100.00
45050;BME280;61798;48.048;-1.928;2023-07-31T02:28:16;100804.81;;;15.84;100.00
45050;BME280;61798;48.048;-1.928;2023-07-31T02:30:22;100765.56;;;15.62;100.00
45050;BME280;61798;48.048;-1.928;2023-07-31T02:32:28;100778.56;;;15.72;100.00
45050;BME280;61798;48.048;-1.928;2023-07-31T02:34:33;100772.06;;;15.73;100.00
45050;BME280;61798;48.048;-1.928;2023-07-31T02:36:39;100776.66;;;15.73;100.00
45050;BME280;61798;48.048;-1.928;2023-07-31T02:38:45;100793.84;;;15.79;100.00
45050;BME280;61798;48.048;-1.928;2023-07-31T02:40:51;100796.09;;;15.82;100.00
45050;BME280;61798;48.048;-1.928;2023-07-31T02:42:57;100800.00;;;15.86;100.00
45050;BME280;61798;48.048;-1.928;2023-07-31T02:45:03;100780.94;;;15.81;100.00
45050;BME280;61798;48.048;-1.928;2023-07-31T02:47:09;100793.72;;;15.92;100.00
45050;BME280;61798;48.048;-1.928;2023-07-31T02:49:15;100794.53;;;15.93;100.00
45050;BME280;61798;48.048;-1.928;2023-07-31T02:51:20;100776.31;;;15.88;100.00
45050;BME280;61798;48.048;-1.928;2023-07-31T02:53:26;100785.38;;;15.94;100.00
45050;BME280;61798;48.048;-1.928;2023-07-31T02:55:32;100735.38;;;15.65;100.00
45050;BME280;61798;48.048;-1.928;2023-07-31T02:57:38;100771.19;;;15.99;100.00
45050;BME280;61798;48.048;-1.928;2023-07-31T02:59:44;100751.38;;;15.86;100.00
45050;BME280;61798;48.048;-1.928;2023-07-31T03:01:50;100749.28;;;15.88;100.00
45050;BME280;61798;48.048;-1.928;2023-07-31T03:03:55;100738.53;;;15.81;100.00
45050;BME280;61798;48.048;-1.928;2023-07-31T03:06:01;100733.81;;;15.77;100.00
45050;BME280;61798;48.048;-1.928;2023-07-31T03:08:07;100760.22;;;15.93;100.00
45050;BME280;61798;48.048;-1.928;2023-07-31T03:10:13;100756.69;;;15.93;100.00
45050;BME280;61798;48.048;-1.928;2023-07-31T03:12:19;100750.47;;;15.92;100.00
45050;BME280;61798;48.048;-1.928;2023-07-31T03:14:25;100736.44;;;15.83;100.00
45050;BME280;61798;48.048;-1.928;2023-07-31T03:16:32;100755.81;;;15.99;100.00
45050;BME280;61798;48.048;-1.928;2023-07-31T03:18:38;100733.59;;;15.78;100.00
45050;BME280;61798;48.048;-1.928;2023-07-31T03:20:43;100746.50;;;15.95;100.00
45050;BME280;61798;48.048;-1.928;2023-07-31T03:22:49;100728.91;;;15.85;100.00
45050;BME280;61798;48.048;-1.928;2023-07-31T03:24:55;100743.53;;;15.96;100.00
45050;BME280;61798;48.048;-1.928;2023-07-31T03:27:01;100717.38;;;15.78;100.00
45050;BME280;61798;48.048;-1.928;2023-07-31T03:29:07;100753.47;;;16.03;100.00
45050;BME280;61798;48.048;-1.928;2023-07-31T03:31:13;100732.16;;;15.94;100.00
45050;BME280;61798;48.048;-1.928;2023-07-31T03:33:19;100725.53;;;15.90;100.00
45050;BME280;61798;48.048;-1.928;2023-07-31T03:35:25;100734.41;;;15.98;100.00
45050;BME280;61798;48.048;-1.928;2023-07-31T03:37:31;100736.63;;;16.01;100.00
45050;BME280;61798;48.048;-1.928;2023-07-31T03:39:37;100730.28;;;15.95;100.00
45050;BME280;61798;48.048;-1.928;2023-07-31T03:41:42;100743.53;;;15.96;100.00
45050;BME280;61798;48.048;-1.928;2023-07-31T03:43:50;100749.09;;;16.02;100.00
45050;BME280;61798;48.048;-1.928;2023-07-31T03:46:01;100750.09;;;16.07;100.00
45050;BME280;61798;48.048;-1.928;2023-07-31T03:48:08;100741.00;;;16.02;100.00
45050;BME280;61798;48.048;-1.928;2023-07-31T03:50:14;100741.00;;;16.02;100.00
45050;BME280;61798;48.048;-1.928;2023-07-31T03:52:20;100735.13;;;16.05;100.00
45050;BME280;61798;48.048;-1.928;2023-07-31T03:54:26;100739.06;;;16.09;100.00
45050;BME280;61798;48.048;-1.928;2023-07-31T03:56:31;100698.75;;;15.89;100.00
45050;BME280;61798;48.048;-1.928;2023-07-31T03:58:37;100698.06;;;15.93;100.00
45050;BME280;61798;48.048;-1.928;2023-07-31T04:00:43;100702.94;;;16.03;100.00
45050;BME280;61798;48.048;-1.928;2023-07-31T04:02:49;100710.53;;;16.13;100.00
45050;BME280;61798;48.048;-1.928;2023-07-31T04:04:55;100689.28;;;15.98;100.00
45050;BME280;61798;48.048;-1.928;2023-07-31T04:07:00;100708.28;;;16.10;100.00
45050;BME280;61798;48.048;-1.928;2023-07-31T04:09:06;100697.47;;;16.10;100.00
45050;BME280;61798;48.048;-1.928;2023-07-31T04:11:12;100661.75;;;15.89;100.00
45050;BME280;61798;48.048;-1.928;2023-07-31T04:13:18;100705.75;;;16.09;100.00
45050;BME280;61798;48.048;-1.928;2023-07-31T04:15:23;100699.56;;;16.08;100.00
45050;BME280;61798;48.048;-1.928;2023-07-31T04:17:29;100699.72;;;16.13;100.00
45050;BME280;61798;48.048;-1.928;2023-07-31T04:19:35;100724.19;;;16.19;100.00
45050;BME280;61798;48.048;-1.928;2023-07-31T04:21:41;100692.50;;;16.07;100.00
45050;BME280;61798;48.048;-1.928;2023-07-31T04:23:47;100691.31;;;16.03;100.00
45050;BME280;61798;48.048;-1.928;2023-07-31T04:25:52;100712.22;;;16.26;100.00
45050;BME280;61798;48.048;-1.928;2023-07-31T04:27:58;100693.41;;;16.20;100.00
45050;BME280;61798;48.048;-1.928;2023-07-31T04:30:05;100680.41;;;16.10;100.00
45050;BME280;61798;48.048;-1.928;2023-07-31T04:32:10;100673.78;;;16.05;100.00
45050;BME280;61798;48.048;-1.928;2023-07-31T04:34:16;100706.00;;;16.26;100.00
45050;BME280;61798;48.048;-1.928;2023-07-31T04:36:22;100705.53;;;16.29;100.00
45050;BME280;61798;48.048;-1.928;2023-07-31T04:38:28;100705.53;;;16.29;100.00
45050;BME280;61798;48.048;-1.928;2023-07-31T04:40:34;100688.47;;;16.28;100.00
45050;BME280;61798;48.048;-1.928;2023-07-31T04:42:39;100674.34;;;16.14;100.00
45050;BME280;61798;48.048;-1.928;2023-07-31T04:44:45;100675.16;;;16.15;100.00
45050;BME280;61798;48.048;-1.928;2023-07-31T04:46:51;100678.44;;;16.17;100.00
45050;BME280;61798;48.048;-1.928;2023-07-31T04:48:57;100702.34;;;16.32;100.00
45050;BME280;61798;48.048;-1.928;2023-07-31T04:51:03;100676.56;;;16.17;100.00
45050;BME280;61798;48.048;-1.928;2023-07-31T04:53:09;100689.28;;;16.29;100.00
45050;BME280;61798;48.048;-1.928;2023-07-31T04:55:15;100695.91;;;16.33;100.00
45050;BME280;61798;48.048;-1.928;2023-07-31T04:57:21;100690.72;;;16.32;100.00
45050;BME280;61798;48.048;-1.928;2023-07-31T04:59:26;100699.78;;;16.37;100.00
45050;BME280;61798;48.048;-1.928;2023-07-31T05:01:32;100668.47;;;16.17;100.00
45050;BME280;61798;48.048;-1.928;2023-07-31T05:03:38;100658.69;;;16.16;100.00
45050;BME280;61798;48.048;-1.928;2023-07-31T05:05:45;100666.47;;;16.25;100.00
45050;BME280;61798;48.048;-1.928;2023-07-31T05:07:51;100668.13;;;16.26;100.00
45050;BME280;61798;48.048;-1.928;2023-07-31T05:09:57;100666.16;;;16.33;100.00
45050;BME280;61798;48.048;-1.928;2023-07-31T05:12:04;100639.06;;;16.21;100.00
45050;BME280;61798;48.048;-1.928;2023-07-31T05:14:11;100658.66;;;16.35;100.00
45050;BME280;61798;48.048;-1.928;2023-07-31T05:16:17;100643.56;;;16.27;100.00
45050;BME280;61798;48.048;-1.928;2023-07-31T05:18:22;100633.66;;;16.21;100.00
45050;BME280;61798;48.048;-1.928;2023-07-31T05:20:28;100656.28;;;16.39;100.00
45050;BME280;61798;48.048;-1.928;2023-07-31T05:22:34;100666.66;;;16.42;100.00
45050;BME280;61798;48.048;-1.928;2023-07-31T05:24:40;100667.47;;;16.43;100.00
45050;BME280;61798;48.048;-1.928;2023-07-31T05:26:46;100643.56;;;16.27;100.00
45050;BME280;61798;48.048;-1.928;2023-07-31T05:28:51;100649.59;;;16.42;100.00
45050;BME280;61798;48.048;-1.928;2023-07-31T05:31:01;100664.19;;;16.53;100.00
45050;BME280;61798;48.048;-1.928;2023-07-31T05:33:07;100666.88;;;16.53;100.00
45050;BME280;61798;48.048;-1.928;2023-07-31T05:35:13;100649.69;;;16.35;100.00
45050;BME280;61798;48.048;-1.928;2023-07-31T05:37:19;100678.91;;;16.57;100.00
45050;BME280;61798;48.048;-1.928;2023-07-31T05:39:25;100644.66;;;16.38;100.00
45050;BME280;61798;48.048;-1.928;2023-07-31T05:41:31;100667.72;;;16.53;100.00
45050;BME280;61798;48.048;-1.928;2023-07-31T05:43:37;100664.31;;;16.58;100.00
45050;BME280;61798;48.048;-1.928;2023-07-31T05:45:43;100673.84;;;16.60;100.00
45050;BME280;61798;48.048;-1.928;2023-07-31T05:47:49;100651.97;;;16.50;100.00
45050;BME280;61798;48.048;-1.928;2023-07-31T05:49:54;100661.97;;;16.62;100.00
45050;BME280;61798;48.048;-1.928;2023-07-31T05:52:00;100650.22;;;16.56;100.00
45050;BME280;61798;48.048;-1.928;2023-07-31T05:54:06;100632.44;;;16.48;100.00
45050;BME280;61798;48.048;-1.928;2023-07-31T05:56:12;100636.09;;;16.54;100.00
45050;BME280;61798;48.048;-1.928;2023-07-31T05:58:18;100622.69;;;16.47;100.00
45050;BME280;61798;48.048;-1.928;2023-07-31T06:00:23;100640.94;;;16.64;100.00
45050;BME280;61798;48.048;-1.928;2023-07-31T06:02:29;100651.38;;;16.72;100.00
45050;BME280;61798;48.048;-1.928;2023-07-31T06:04:38;100621.25;;;16.56;100.00
45050;BME280;61798;48.048;-1.928;2023-07-31T06:06:44;100644.44;;;16.76;100.00
45050;BME280;61798;48.048;-1.928;2023-07-31T06:08:50;100641.88;;;16.81;100.00
45050;BME280;61798;48.048;-1.928;2023-07-31T06:10:56;100629.28;;;16.75;100.00
45050;BME280;61798;48.048;-1.928;2023-07-31T06:13:02;100623.75;;;16.82;100.00
45050;BME280;61798;48.048;-1.928;2023-07-31T06:15:08;100621.53;;;16.91;100.00
45050;BME280;61798;48.048;-1.928;2023-07-31T06:17:14;100580.94;;;16.79;100.00
45050;BME280;61798;48.048;-1.928;2023-07-31T06:19:20;100611.25;;;16.93;100.00
45050;BME280;61798;48.048;-1.928;2023-07-31T06:21:26;100621.72;;;17.01;100.00
45050;BME280;61798;48.048;-1.928;2023-07-31T06:23:32;100593.50;;;16.85;100.00
45050;BME280;61798;48.048;-1.928;2023-07-31T06:25:38;100621.84;;;17.07;100.00
45050;BME280;61798;48.048;-1.928;2023-07-31T06:27:43;100619.84;;;17.02;100.00
45050;BME280;61798;48.048;-1.928;2023-07-31T06:29:49;100626.56;;;17.11;100.00
45050;BME280;61798;48.048;-1.928;2023-07-31T06:31:55;100626.19;;;17.20;100.00
45050;BME280;61798;48.048;-1.928;2023-07-31T06:34:01;100623.28;;;17.21;100.00
45050;BME280;61798;48.048;-1.928;2023-07-31T06:36:07;100594.31;;;17.10;100.00
45050;BME280;61798;48.048;-1.928;2023-07-31T06:38:13;100596.66;;;17.18;100.00
45050;BME280;61798;48.048;-1.928;2023-07-31T06:40:19;100620.06;;;17.25;100.00
45050;BME280;61798;48.048;-1.928;2023-07-31T06:42:24;100589.72;;;17.10;100.00
45050;BME280;61798;48.048;-1.928;2023-07-31T06:44:31;100619.75;;;17.21;100.00
45050;BME280;61798;48.048;-1.928;2023-07-31T06:46:37;100620.69;;;17.27;100.00
45050;BME280;61798;48.048;-1.928;2023-07-31T06:48:43;100618.69;;;17.22;100.00
45050;BME280;61798;48.048;-1.928;2023-07-31T06:50:49;100624.31;;;17.20;100.00
45050;BME280;61798;48.048;-1.928;2023-07-31T06:52:55;100611.72;;;17.14;100.00
45050;BME280;61798;48.048;-1.928;2023-07-31T06:55:17;100625.81;;;17.16;100.00
45050;BME280;61798;48.048;-1.928;2023-07-31T06:57:24;100620.75;;;17.20;100.00
45050;BME280;61798;48.048;-1.928;2023-07-31T06:59:30;100605.63;;;17.07;100.00
45050;BME280;61798;48.048;-1.928;2023-07-31T07:01:35;100611.84;;;17.19;100.00
45050;BME280;61798;48.048;-1.928;2023-07-31T07:03:41;100618.91;;;17.20;100.00
45050;BME280;61798;48.048;-1.928;2023-07-31T07:05:47;100597.72;;;17.05;100.00
45050;BME280;61798;48.048;-1.928;2023-07-31T07:07:53;100593.97;;;17.06;100.00
45050;BME280;61798;48.048;-1.928;2023-07-31T07:09:59;100607.47;;;17.18;100.00
45050;BME280;61798;48.048;-1.928;2023-07-31T07:12:05;100612.78;;;17.25;100.00
45050;BME280;61798;48.048;-1.928;2023-07-31T07:14:11;100605.38;;;17.20;100.00
45050;BME280;61798;48.048;-1.928;2023-07-31T07:16:17;100610.56;;;17.22;100.00
45050;BME280;61798;48.048;-1.928;2023-07-31T07:18:23;100608.31;;;17.19;100.00
45050;BME280;61798;48.048;-1.928;2023-07-31T07:20:29;100607.34;;;17.13;100.00
45050;BME280;61798;48.048;-1.928;2023-07-31T07:22:35;100604.56;;;17.08;100.00
45050;BME280;61798;48.048;-1.928;2023-07-31T07:24:41;100616.66;;;17.05;100.00
45050;BME280;61798;48.048;-1.928;2023-07-31T07:26:47;100588.09;;;16.97;100.00
45050;BME280;61798;48.048;-1.928;2023-07-31T07:28:53;100577.25;;;16.97;100.00
45050;BME280;61798;48.048;-1.928;2023-07-31T07:30:59;100578.31;;;16.96;100.00
45050;BME280;61798;48.048;-1.928;2023-07-31T07:33:05;100611.63;;;17.21;100.00
45050;BME280;61798;48.048;-1.928;2023-07-31T07:35:11;100582.16;;;17.12;100.00
45050;BME280;61798;48.048;-1.928;2023-07-31T07:37:17;100589.00;;;17.15;100.00
45050;BME280;61798;48.048;-1.928;2023-07-31T07:39:23;100597.94;;;17.28;100.00
45050;BME280;61798;48.048;-1.928;2023-07-31T07:41:29;100598.88;;;17.33;100.00
45050;BME280;61798;48.048;-1.928;2023-07-31T07:43:34;100552.88;;;17.21;100.00
45050;BME280;61798;48.048;-1.928;2023-07-31T07:45:40;100580.63;;;17.29;100.00
45050;BME280;61798;48.048;-1.928;2023-07-31T07:47:46;100598.50;;;17.42;100.00
45050;BME280;61798;48.048;-1.928;2023-07-31T07:49:52;100606.84;;;17.40;100.00
45050;BME280;61798;48.048;-1.928;2023-07-31T07:51:58;100612.94;;;17.48;100.00
45050;BME280;61798;48.048;-1.928;2023-07-31T07:54:04;100597.31;;;17.38;100.00
45050;BME280;61798;48.048;-1.928;2023-07-31T07:56:10;100603.91;;;17.42;100.00
45050;BME280;61798;48.048;-1.928;2023-07-31T07:58:15;100606.97;;;17.46;100.00
45050;BME280;61798;48.048;-1.928;2023-07-31T08:00:21;100593.22;;;17.35;100.00
45050;BME280;61798;48.048;-1.928;2023-07-31T08:02:27;100582.66;;;17.21;100.00
45050;BME280;61798;48.048;-1.928;2023-07-31T08:04:33;100594.50;;;17.32;100.00
45050;BME280;61798;48.048;-1.928;2023-07-31T08:06:39;100590.19;;;17.31;100.00
45050;BME280;61798;48.048;-1.928;2023-07-31T08:08:45;100555.22;;;17.06;100.00
45050;BME280;61798;48.048;-1.928;2023-07-31T08:10:51;100573.09;;;17.19;100.00
45050;BME280;61798;48.048;-1.928;2023-07-31T08:12:57;100615.13;;;17.33;100.00
45050;BME280;61798;48.048;-1.928;2023-07-31T08:15:03;100618.53;;;17.29;100.00
45050;BME280;61798;48.048;-1.928;2023-07-31T08:17:09;100591.13;;;17.25;100.00
45050;BME280;61798;48.048;-1.928;2023-07-31T08:19:15;100605.59;;;17.31;100.00
45050;BME280;61798;48.048;-1.928;2023-07-31T08:21:21;100569.22;;;17.15;100.00
45050;BME280;61798;48.048;-1.928;2023-07-31T08:23:27;100604.97;;;17.41;100.00
45050;BME280;61798;48.048;-1.928;2023-07-31T08:25:36;100602.94;;;17.48;100.00
45050;BME280;61798;48.048;-1.928;2023-07-31T08:27:43;100607.78;;;17.46;100.00
45050;BME280;61798;48.048;-1.928;2023-07-31T08:29:49;100601.31;;;17.47;100.00
45050;BME280;61798;48.048;-1.928;2023-07-31T08:31:55;100594.63;;;17.38;100.00
45050;BME280;61798;48.048;-1.928;2023-07-31T08:34:00;100614.03;;;17.47;100.00
45050;BME280;61798;48.048;-1.928;2023-07-31T08:36:07;100606.47;;;17.49;100.00
45050;BME280;61798;48.048;-1.928;2023-07-31T08:38:12;100595.56;;;17.43;100.00
45050;BME280;61798;48.048;-1.928;2023-07-31T08:40:18;100604.38;;;17.51;100.00
45050;BME280;61798;48.048;-1.928;2023-07-31T08:42:24;100561.88;;;17.39;100.00
45050;BME280;61798;48.048;-1.928;2023-07-31T08:44:31;100572.41;;;17.53;100.00
45050;BME280;61798;48.048;-1.928;2023-07-31T08:46:38;100585.69;;;17.67;100.00
45050;BME280;61798;48.048;-1.928;2023-07-31T08:48:45;100582.16;;;17.66;100.00
45050;BME280;61798;48.048;-1.928;2023-07-31T08:50:53;100572.47;;;17.70;100.00
45050;BME280;61798;48.048;-1.928;2023-07-31T08:52:58;100559.94;;;17.81;100.00
45050;BME280;61798;48.048;-1.928;2023-07-31T08:55:05;100583.94;;;17.90;100.00
45050;BME280;61798;48.048;-1.928;2023-07-31T08:57:12;100572.75;;;17.86;100.00
45050;BME280;61798;48.048;-1.928;2023-07-31T08:59:18;100585.63;;;17.79;100.00
45050;BME280;61798;48.048;-1.928;2023-07-31T09:01:26;100586.63;;;17.90;100.00
45050;BME280;61798;48.048;-1.928;2023-07-31T09:03:34;100586.34;;;18.03;100.00
45050;BME280;61798;48.048;-1.928;2023-07-31T09:05:46;100564.38;;;18.05;100.00
45050;BME280;61798;48.048;-1.928;2023-07-31T09:07:53;100550.00;;;18.22;100.00
45050;BME280;61798;48.048;-1.928;2023-07-31T09:10:01;100563.56;;;18.56;100.00
45050;BME280;61798;48.048;-1.928;2023-07-31T09:12:07;100575.06;;;18.64;100.00
45050;BME280;61798;48.048;-1.928;2023-07-31T09:14:14;100558.13;;;18.74;100.00
45050;BME280;61798;48.048;-1.928;2023-07-31T09:16:30;100561.22;;;18.83;100.00
45050;BME280;61798;48.048;-1.928;2023-07-31T09:18:53;100550.22;;;18.72;100.00
45050;BME280;61798;48.048;-1.928;2023-07-31T09:21:06;100552.31;;;18.87;100.00
45050;BME280;61798;48.048;-1.928;2023-07-31T09:23:14;100546.88;;;18.87;100.00
45050;BME280;61798;48.048;-1.928;2023-07-31T09:25:23;100543.69;;;18.90;100.00
45050;BME280;61798;48.048;-1.928;2023-07-31T09:27:45;100533.00;;;19.06;100.00
45050;BME280;61798;48.048;-1.928;2023-07-31T09:30:01;100524.91;;;19.11;100.00
45050;BME280;61798;48.048;-1.928;2023-07-31T09:32:15;100536.16;;;18.98;100.00
45050;BME280;61798;48.048;-1.928;2023-07-31T09:34:29;100521.00;;;19.02;100.00
45050;BME280;61798;48.048;-1.928;2023-07-31T09:36:48;100526.94;;;18.99;100.00
45050;BME280;61798;48.048;-1.928;2023-07-31T09:38:54;100518.84;;;19.04;100.00
45050;BME280;61798;48.048;-1.928;2023-07-31T09:41:00;100514.69;;;18.96;100.00
45050;BME280;61798;48.048;-1.928;2023-07-31T09:43:08;100510.19;;;18.85;100.00
45050;BME280;61798;48.048;-1.928;2023-07-31T09:45:18;100532.56;;;18.92;100.00
45050;BME280;61798;48.048;-1.928;2023-07-31T09:47:24;100519.91;;;18.80;100.00
45050;BME280;61798;48.048;-1.928;2023-07-31T09:49:31;100512.41;;;18.65;100.00
45050;BME280;61798;48.048;-1.928;2023-07-31T09:51:38;100533.09;;;18.71;100.00
45050;BME280;61798;48.048;-1.928;2023-07-31T09:53:50;100539.63;;;18.70;100.00
45050;BME280;61798;48.048;-1.928;2023-07-31T09:55:58;100530.06;;;18.68;100.00
45050;BME280;61798;48.048;-1.928;2023-07-31T09:58:12;100539.03;;;18.68;100.00
45050;BME280;61798;48.048;-1.928;2023-07-31T10:00:18;100544.06;;;18.59;100.00
45050;BME280;61798;48.048;-1.928;2023-07-31T10:02:26;100528.72;;;18.48;100.00
45050;BME280;61798;48.048;-1.928;2023-07-31T10:04:32;100525.69;;;18.44;100.00
45050;BME280;61798;48.048;-1.928;2023-07-31T10:06:40;100520.66;;;18.53;100.00
45050;BME280;61798;48.048;-1.928;2023-07-31T10:08:47;100531.94;;;18.45;100.00
45050;BME280;61798;48.048;-1.928;2023-07-31T10:11:00;100522.47;;;18.47;100.00
45050;BME280;61798;48.048;-1.928;2023-07-31T10:13:08;100515.88;;;18.43;100.00
45050;BME280;61798;48.048;-1.928;2023-07-31T10:15:14;100526.28;;;18.46;100.00
45050;BME280;61798;48.048;-1.928;2023-07-31T10:17:24;100516.06;;;18.54;100.00
45050;BME280;61798;48.048;-1.928;2023-07-31T10:19:31;100510.47;;;18.43;100.00
45050;BME280;61798;48.048;-1.928;2023-07-31T10:21:37;100498.97;;;18.36;100.00
45050;BME280;61798;48.048;-1.928;2023-07-31T10:23:44;100529.50;;;18.66;100.00
45050;BME280;61798;48.048;-1.928;2023-07-31T10:25:53;100512.31;;;18.60;100.00
45050;BME280;61798;48.048;-1.928;2023-07-31T10:27:59;100502.38;;;18.66;100.00
45050;BME280;61798;48.048;-1.928;2023-07-31T10:30:08;100490.50;;;18.72;100.00
45050;BME280;61798;48.048;-1.928;2023-07-31T10:32:16;100500.91;;;19.03;100.00
45050;BME280;61798;48.048;-1.928;2023-07-31T10:34:23;100491.97;;;19.25;100.00
45050;BME280;61798;48.048;-1.928;2023-07-31T10:36:28;100470.41;;;19.18;100.00
45050;BME280;61798;48.048;-1.928;2023-07-31T10:38:34;100481.19;;;19.36;100.00
45050;BME280;61798;48.048;-1.928;2023-07-31T10:40:40;100470.31;;;19.36;100.00
45050;BME280;61798;48.048;-1.928;2023-07-31T10:42:50;100480.66;;;19.39;100.00
45050;BME280;61798;48.048;-1.928;2023-07-31T10:45:01;100476.63;;;19.41;100.00
45050;BME280;61798;48.048;-1.928;2023-07-31T10:47:07;100479.03;;;19.38;100.00
45050;BME280;61798;48.048;-1.928;2023-07-31T10:49:20;100485.38;;;19.49;100.00